createdAt,value
2019-05-01T00:00:24.700Z,33.35
2019-05-01T00:03:14.903Z,34.30
2019-05-01T00:05:46.907Z,33.95
2019-05-01T00:08:15.726Z,34.92
2019-05-01T00:10:44.619Z,35.30
2019-05-01T00:13:13.469Z,34.23
2019-05-01T00:15:43.063Z,35.40
2019-05-01T00:18:11.825Z,37.20
2019-05-01T00:20:40.860Z,36.63
2019-05-01T00:23:09.552Z,38.02
2019-05-01T00:25:38.638Z,36.70
2019-05-01T00:28:10.709Z,37.55
2019-05-01T00:30:40.035Z,36.77
2019-05-01T00:33:08.993Z,35.68
2019-05-01T00:35:37.837Z,36.38
2019-05-01T00:38:06.611Z,38.53
2019-05-01T00:40:35.308Z,40.88
2019-05-01T00:43:04.369Z,41.35
2019-05-01T00:45:33.759Z,42.23
2019-05-01T00:48:03.052Z,43.38
2019-05-01T00:50:32.038Z,41.48
2019-05-01T00:53:01.046Z,38.83
2019-05-01T00:55:51.888Z,37.13
2019-05-01T00:58:37.831Z,36.00
2019-05-01T01:01:24.442Z,37.58
2019-05-01T01:03:53.378Z,36.90
2019-05-01T01:06:22.177Z,37.53
2019-05-01T01:08:51.540Z,36.68
2019-05-01T01:11:20.344Z,38.13
2019-05-01T01:13:49.848Z,37.95
2019-05-01T01:16:18.573Z,37.63
2019-05-01T01:18:47.598Z,37.17
2019-05-01T01:21:18.129Z,38.17
2019-05-01T01:23:47.527Z,37.95
2019-05-01T01:26:18.804Z,39.58
2019-05-01T01:28:50.240Z,39.55
2019-05-01T01:31:19.015Z,40.98
2019-05-01T01:33:48.006Z,39.58
2019-05-01T01:36:17.097Z,40.63
2019-05-01T01:38:45.858Z,41.63
2019-05-01T01:41:14.984Z,41.15
2019-05-01T01:43:54.524Z,42.35
2019-05-01T01:46:28.330Z,42.48
2019-05-01T01:48:57.549Z,43.92
2019-05-01T01:51:26.623Z,45.17
2019-05-01T01:53:55.434Z,46.60
2019-05-01T01:56:27.941Z,46.10
2019-05-01T01:58:57.070Z,46.48
2019-05-01T02:01:46.254Z,46.83
2019-05-01T02:04:33.924Z,47.67
2019-05-01T02:07:03.017Z,48.98
2019-05-01T02:09:31.777Z,48.55
2019-05-01T02:12:00.878Z,50.00
2019-05-01T02:14:31.064Z,48.38
2019-05-01T02:17:00.124Z,49.70
2019-05-01T02:19:29.145Z,50.33
2019-05-01T02:21:57.907Z,48.90
2019-05-01T02:24:26.572Z,49.73
2019-05-01T02:26:57.607Z,51.15
2019-05-01T02:29:35.925Z,49.45
2019-05-01T02:32:04.784Z,48.48
2019-05-01T02:34:36.104Z,52.15
2019-05-01T02:37:05.287Z,52.90
2019-05-01T02:39:35.535Z,54.08
2019-05-01T02:42:06.292Z,52.83
2019-05-01T02:44:41.961Z,56.37
2019-05-01T02:47:13.711Z,58.52
2019-05-01T02:49:53.078Z,58.98
2019-05-01T02:52:25.128Z,58.63
2019-05-01T02:57:24.429Z,54.58
2019-05-01T02:59:55.753Z,55.23
2019-05-01T03:02:27.012Z,58.58
2019-05-01T03:04:57.822Z,56.85
2019-05-01T03:07:31.474Z,58.60
2019-05-01T03:10:01.814Z,57.58
2019-05-01T03:12:33.267Z,58.73
2019-05-01T03:15:04.534Z,56.63
2019-05-01T03:17:55.347Z,58.25
2019-05-01T03:20:34.578Z,60.35
2019-05-01T03:23:16.165Z,60.20
2019-05-01T03:25:45.354Z,58.78
2019-05-01T03:28:14.690Z,59.42
2019-05-01T03:30:44.160Z,57.23
2019-05-01T03:33:13.624Z,58.28
2019-05-01T03:35:43.106Z,56.90
2019-05-01T03:38:12.297Z,56.02
2019-05-01T03:40:42.023Z,57.10
2019-05-01T03:43:11.223Z,54.88
2019-05-01T03:45:40.925Z,56.98
2019-05-01T03:48:09.891Z,55.48
2019-05-01T03:50:39.888Z,56.95
2019-05-01T03:53:08.693Z,57.30
2019-05-01T03:55:38.235Z,55.30
2019-05-01T03:58:07.096Z,53.80
2019-05-01T04:01:05.618Z,55.17
2019-05-01T04:03:38.363Z,52.65
2019-05-01T04:06:07.612Z,53.75
2019-05-01T04:08:37.475Z,56.13
2019-05-01T04:11:06.564Z,55.73
2019-05-01T04:13:35.480Z,56.30
2019-05-01T04:16:05.033Z,56.15
2019-05-01T04:18:34.990Z,54.33
2019-05-01T04:21:04.485Z,54.35
2019-05-01T04:23:33.773Z,55.00
2019-05-01T04:26:03.292Z,53.75
2019-05-01T04:28:51.435Z,56.58
2019-05-01T04:31:32.291Z,55.55
2019-05-01T04:34:04.559Z,53.25
2019-05-01T04:36:37.530Z,53.78
2019-05-01T04:39:07.974Z,55.65
2019-05-01T04:41:37.278Z,53.00
2019-05-01T04:44:06.463Z,54.90
2019-05-01T04:46:36.365Z,51.33
2019-05-01T04:49:05.594Z,53.45
2019-05-01T04:51:35.239Z,53.87
2019-05-01T04:54:04.181Z,52.55
2019-05-01T04:56:33.469Z,50.23
2019-05-01T04:59:03.971Z,52.30
2019-05-01T05:01:56.839Z,51.33
2019-05-01T05:04:24.812Z,52.17
2019-05-01T05:06:54.630Z,50.52
2019-05-01T05:09:46.995Z,53.92
2019-05-01T05:12:48.784Z,53.92
2019-05-01T05:15:37.571Z,52.75
2019-05-01T05:18:06.618Z,52.43
2019-05-01T05:20:35.904Z,53.60
2019-05-01T05:23:06.782Z,51.92
2019-05-01T05:25:35.844Z,52.17
2019-05-01T05:28:05.340Z,52.17
2019-05-01T05:30:35.254Z,54.55
2019-05-01T05:33:17.841Z,51.73
2019-05-01T05:35:39.805Z,50.05
2019-05-01T05:38:30.442Z,44.75
2019-05-01T05:41:01.748Z,47.85
2019-05-01T05:43:30.638Z,49.45
2019-05-01T05:46:00.654Z,46.37
2019-05-01T05:48:29.342Z,47.30
2019-05-01T05:51:22.037Z,47.43
2019-05-01T05:53:55.088Z,46.13
2019-05-01T05:56:32.034Z,45.83
2019-05-01T05:59:07.996Z,44.75
2019-05-01T06:01:46.689Z,45.45
2019-05-01T06:04:36.638Z,45.90
2019-05-01T06:07:17.933Z,48.25
2019-05-01T06:09:57.280Z,42.50
2019-05-01T06:12:33.480Z,43.48
2019-05-01T06:15:22.412Z,43.08
2019-05-01T06:17:59.218Z,43.75
2019-05-01T06:20:51.516Z,44.48
2019-05-01T06:23:37.445Z,42.17
2019-05-01T06:26:26.369Z,41.95
2019-05-01T06:29:00.213Z,42.05
2019-05-01T06:31:26.446Z,41.00
2019-05-01T06:33:56.017Z,43.52
2019-05-01T06:36:24.880Z,39.38
2019-05-01T06:38:55.509Z,40.40
2019-05-01T06:41:28.733Z,41.00
2019-05-01T06:44:09.170Z,40.65
2019-05-01T06:46:47.875Z,41.50
2019-05-01T06:49:41.307Z,41.10
2019-05-01T06:52:11.028Z,42.43
2019-05-01T06:54:40.285Z,40.50
2019-05-01T06:57:09.551Z,40.78
2019-05-01T06:59:40.337Z,41.23
2019-05-01T07:02:12.189Z,42.33
2019-05-01T07:04:42.737Z,40.90
2019-05-01T07:07:24.961Z,41.70
2019-05-01T07:09:49.352Z,39.67
2019-05-01T07:12:23.983Z,40.85
2019-05-01T07:14:52.163Z,40.33
2019-05-01T07:17:21.728Z,40.50
2019-05-01T07:20:00.816Z,41.63
2019-05-01T07:22:29.951Z,36.13
2019-05-01T07:25:03.799Z,38.40
2019-05-01T07:27:29.948Z,37.25
2019-05-01T07:30:02.835Z,38.05
2019-05-01T07:32:31.658Z,35.45
2019-05-01T07:35:02.003Z,36.65
2019-05-01T07:37:31.383Z,36.48
2019-05-01T07:40:00.492Z,37.03
2019-05-01T07:42:30.921Z,34.75
2019-05-01T07:45:11.339Z,33.83
2019-05-01T07:47:41.973Z,32.95
2019-05-01T07:50:11.741Z,33.38
2019-05-01T07:52:41.484Z,34.48
2019-05-01T07:55:13.089Z,34.20
2019-05-01T07:57:41.484Z,34.38
2019-05-01T08:00:21.198Z,33.25
2019-05-01T08:02:49.902Z,35.05
2019-05-01T08:05:18.584Z,31.87
2019-05-01T08:07:49.461Z,34.88
2019-05-01T08:10:21.029Z,34.38
2019-05-01T08:12:48.711Z,33.02
2019-05-01T08:15:17.454Z,33.10
2019-05-01T08:17:48.860Z,33.38
2019-05-01T08:20:30.162Z,33.40
2019-05-01T08:22:58.854Z,34.53
2019-05-01T08:25:28.758Z,33.50
2019-05-01T08:28:07.720Z,33.42
2019-05-01T08:30:52.835Z,33.15
2019-05-01T08:33:40.334Z,33.73
2019-05-01T08:36:11.715Z,34.13
2019-05-01T08:38:40.553Z,34.15
2019-05-01T08:41:09.668Z,33.90
2019-05-01T08:43:39.010Z,33.50
2019-05-01T08:46:26.731Z,33.48
2019-05-01T08:49:01.680Z,34.33
2019-05-01T08:51:34.854Z,33.23
2019-05-01T08:54:01.318Z,34.73
2019-05-01T08:56:30.023Z,33.55
2019-05-01T08:58:58.710Z,34.65
2019-05-01T09:01:27.766Z,34.23
2019-05-01T09:03:56.798Z,36.42
2019-05-01T09:06:34.492Z,35.45
2019-05-01T09:08:56.880Z,34.03
2019-05-01T09:11:25.992Z,35.68
2019-05-01T09:13:58.791Z,33.55
2019-05-01T09:16:28.413Z,34.67
2019-05-01T09:18:56.142Z,34.90
2019-05-01T09:21:24.838Z,33.35
2019-05-01T09:23:53.534Z,35.20
2019-05-01T09:26:45.327Z,32.80
2019-05-01T09:29:17.596Z,33.60
2019-05-01T09:31:47.182Z,34.03
2019-05-01T09:34:19.130Z,34.33
2019-05-01T09:36:46.707Z,34.80
2019-05-01T09:39:16.736Z,34.73
2019-05-01T09:41:47.454Z,35.28
2019-05-01T09:44:16.179Z,35.35
2019-05-01T09:46:45.102Z,33.85
2019-05-01T09:49:17.787Z,36.48
2019-05-01T09:54:51.977Z,37.20
2019-05-01T09:57:20.675Z,34.85
2019-05-01T09:59:49.355Z,35.75
2019-05-01T10:02:18.119Z,37.33
2019-05-01T10:04:49.026Z,36.48
2019-05-01T10:07:18.080Z,39.23
2019-05-01T10:09:51.696Z,38.05
2019-05-01T10:12:17.639Z,39.27
2019-05-01T10:14:46.821Z,39.50
2019-05-01T10:17:15.877Z,37.60
2019-05-01T10:19:44.566Z,38.13
2019-05-01T10:22:13.558Z,38.28
2019-05-01T10:24:42.260Z,36.53
2019-05-01T10:27:16.955Z,37.78
2019-05-01T10:30:03.103Z,37.17
2019-05-01T10:32:57.877Z,38.75
2019-05-01T10:35:43.499Z,38.33
2019-05-01T10:38:12.849Z,40.28
2019-05-01T10:40:43.361Z,39.83
2019-05-01T10:43:12.140Z,36.65
2019-05-01T10:45:40.840Z,40.20
2019-05-01T10:48:10.062Z,38.58
2019-05-01T10:50:38.755Z,39.05
2019-05-01T10:53:07.445Z,37.88
2019-05-01T10:55:36.129Z,39.25
2019-05-01T10:58:05.260Z,41.73
2019-05-01T11:00:36.338Z,42.98
2019-05-01T11:03:05.029Z,43.10
2019-05-01T11:05:34.129Z,42.33
2019-05-01T11:08:02.894Z,42.40
2019-05-01T11:10:31.619Z,44.85
2019-05-01T11:13:00.306Z,46.05
2019-05-01T11:15:29.007Z,44.75
2019-05-01T11:17:59.016Z,46.05
2019-05-01T11:20:27.917Z,44.13
2019-05-01T11:22:59.259Z,43.87
2019-05-01T11:25:29.338Z,44.08
2019-05-01T11:27:58.050Z,42.62
2019-05-01T11:30:27.004Z,40.40
2019-05-01T11:33:01.897Z,44.85
2019-05-01T11:35:49.649Z,44.13
2019-05-01T11:38:28.543Z,55.03
2019-05-01T11:41:03.709Z,42.35
2019-05-01T11:43:32.391Z,41.33
2019-05-01T11:46:01.089Z,40.03
2019-05-01T11:48:31.910Z,41.70
2019-05-01T11:51:00.216Z,40.98
2019-05-01T11:53:29.140Z,38.95
2019-05-01T11:55:57.861Z,41.42
2019-05-01T11:58:27.211Z,42.10
2019-05-01T12:00:57.982Z,41.95
2019-05-01T12:03:28.132Z,44.48
2019-05-01T12:05:57.677Z,42.33
2019-05-01T12:08:26.665Z,43.58
2019-05-01T12:10:55.753Z,45.90
2019-05-01T12:13:24.907Z,40.78
2019-05-01T12:16:00.891Z,43.05
2019-05-01T12:18:29.611Z,42.65
2019-05-01T12:20:58.319Z,43.33
2019-05-01T12:23:27.589Z,44.48
2019-05-01T12:25:56.295Z,43.52
2019-05-01T12:28:24.997Z,46.05
2019-05-01T12:30:54.050Z,44.70
2019-05-01T12:33:25.671Z,44.23
2019-05-01T12:35:56.061Z,44.20
2019-05-01T12:38:24.753Z,42.48
2019-05-01T12:41:11.222Z,44.30
2019-05-01T12:43:40.462Z,42.38
2019-05-01T12:46:11.144Z,44.10
2019-05-01T12:48:40.550Z,44.93
2019-05-01T12:51:09.843Z,43.52
2019-05-01T12:53:53.780Z,43.42
2019-05-01T12:56:37.569Z,43.15
2019-05-01T12:59:06.341Z,42.88
2019-05-01T13:01:35.296Z,40.90
2019-05-01T13:04:04.184Z,40.03
2019-05-01T13:06:32.908Z,40.58
2019-05-01T13:09:01.847Z,40.25
2019-05-01T13:11:30.798Z,42.00
2019-05-01T13:14:00.274Z,40.30
2019-05-01T13:16:28.966Z,40.45
2019-05-01T13:18:57.735Z,41.05
2019-05-01T13:21:29.086Z,36.15
2019-05-01T13:23:57.776Z,37.50
2019-05-01T13:26:35.706Z,39.50
2019-05-01T13:29:09.963Z,41.13
2019-05-01T13:31:43.715Z,40.25
2019-05-01T13:34:12.649Z,39.42
2019-05-01T13:36:41.695Z,41.70
2019-05-01T13:39:14.161Z,43.13
2019-05-01T13:41:42.942Z,40.17
2019-05-01T13:44:14.234Z,41.45
2019-05-01T13:46:43.158Z,45.67
2019-05-01T13:49:13.314Z,40.25
2019-05-01T13:51:42.329Z,37.10
2019-05-01T13:54:11.405Z,39.13
2019-05-01T13:56:40.332Z,41.98
2019-05-01T13:59:13.446Z,40.40
2019-05-01T14:01:42.287Z,39.73
2019-05-01T14:04:15.737Z,38.53
2019-05-01T14:06:44.759Z,40.45
2019-05-01T14:09:16.352Z,44.38
2019-05-01T14:11:45.457Z,42.03
2019-05-01T14:14:15.762Z,37.30
2019-05-01T14:16:44.424Z,41.80
2019-05-01T14:19:13.165Z,37.88
2019-05-01T14:21:50.849Z,38.42
2019-05-01T14:24:29.533Z,38.63
2019-05-01T14:26:59.542Z,38.83
2019-05-01T14:29:28.211Z,38.53
2019-05-01T14:32:00.100Z,40.95
2019-05-01T14:34:28.770Z,42.95
2019-05-01T14:36:57.868Z,38.45
2019-05-01T14:39:26.858Z,38.45
2019-05-01T14:41:55.633Z,37.65
2019-05-01T14:44:36.233Z,37.98
2019-05-01T14:46:54.723Z,37.05
2019-05-01T14:49:23.399Z,36.58
2019-05-01T14:51:52.172Z,36.33
2019-05-01T14:54:21.527Z,32.28
2019-05-01T14:56:50.521Z,35.03
2019-05-01T14:59:19.209Z,36.90
2019-05-01T15:01:47.934Z,35.60
2019-05-01T15:04:16.625Z,34.27
2019-05-01T15:06:45.577Z,33.60
2019-05-01T15:09:14.273Z,35.48
2019-05-01T15:11:43.951Z,35.25
2019-05-01T15:14:28.558Z,36.20
2019-05-01T15:17:54.197Z,37.10
2019-05-01T15:20:47.473Z,36.20
2019-05-01T15:23:16.809Z,35.55
2019-05-01T15:25:45.498Z,35.20
2019-05-01T15:28:14.219Z,35.85
2019-05-01T15:30:42.894Z,34.25
2019-05-01T15:33:11.920Z,34.33
2019-05-01T15:35:40.953Z,35.13
2019-05-01T15:38:09.945Z,36.95
2019-05-01T15:40:45.010Z,34.92
2019-05-01T15:43:25.877Z,36.20
2019-05-01T15:45:54.556Z,36.15
2019-05-01T15:48:23.254Z,37.40
2019-05-01T15:50:51.926Z,37.15
2019-05-01T15:53:21.008Z,36.95
2019-05-01T15:55:49.842Z,38.58
2019-05-01T15:58:18.544Z,36.17
2019-05-01T16:00:48.046Z,36.28
2019-05-01T16:03:16.742Z,34.08
2019-05-01T16:05:45.665Z,35.92
2019-05-01T16:08:15.038Z,34.23
2019-05-01T16:10:51.507Z,34.33
2019-05-01T16:13:21.063Z,32.73
2019-05-01T16:15:49.743Z,31.82
2019-05-01T16:18:18.447Z,34.95
2019-05-01T16:20:47.498Z,35.17
2019-05-01T16:23:16.594Z,34.67
2019-05-01T16:25:45.283Z,33.38
2019-05-01T16:28:14.231Z,34.03
2019-05-01T16:30:45.026Z,33.95
2019-05-01T16:33:13.738Z,34.13
2019-05-01T16:35:45.479Z,34.55
2019-05-01T16:41:06.577Z,33.55
2019-05-01T16:43:35.978Z,35.03
2019-05-01T16:46:04.835Z,33.65
2019-05-01T16:48:33.610Z,33.63
2019-05-01T16:51:02.718Z,34.63
2019-05-01T16:53:31.444Z,33.70
2019-05-01T16:56:00.122Z,31.93
2019-05-01T16:58:29.140Z,32.58
2019-05-01T17:01:30.185Z,34.08
2019-05-01T17:04:30.022Z,32.17
2019-05-01T17:07:24.467Z,32.30
2019-05-01T17:10:09.456Z,32.95
2019-05-01T17:12:52.389Z,31.30
2019-05-01T17:15:27.907Z,32.42
2019-05-01T17:17:56.692Z,31.25
2019-05-01T17:20:26.351Z,32.83
2019-05-01T17:22:55.335Z,30.75
2019-05-01T17:25:24.218Z,30.45
2019-05-01T17:27:53.148Z,31.23
2019-05-01T17:30:37.318Z,32.53
2019-05-01T17:33:06.147Z,32.98
2019-05-01T17:35:37.028Z,32.30
2019-05-01T17:38:05.749Z,33.18
2019-05-01T17:40:34.519Z,32.83
2019-05-01T17:43:03.368Z,31.37
2019-05-01T17:45:34.796Z,31.05
2019-05-01T17:48:03.238Z,31.42
2019-05-01T17:50:31.925Z,31.15
2019-05-01T17:53:01.007Z,30.72
2019-05-01T17:55:29.737Z,31.57
2019-05-01T17:57:58.420Z,31.80
2019-05-01T18:00:37.427Z,32.17
2019-05-01T18:03:14.486Z,31.65
2019-05-01T18:06:14.425Z,31.93
2019-05-01T18:08:43.470Z,31.68
2019-05-01T18:11:14.313Z,30.82
2019-05-01T18:13:42.920Z,32.33
2019-05-01T18:16:11.673Z,31.68
2019-05-01T18:18:40.361Z,30.60
2019-05-01T18:21:10.835Z,31.23
2019-05-01T18:23:57.688Z,31.45
2019-05-01T18:26:46.235Z,31.77
2019-05-01T18:29:19.943Z,31.42
2019-05-01T18:31:48.630Z,32.17
2019-05-01T18:34:17.394Z,32.28
2019-05-01T18:36:54.929Z,31.48
2019-05-01T18:39:28.782Z,31.30
2019-05-01T18:42:02.718Z,31.52
2019-05-01T18:44:31.852Z,31.55
2019-05-01T18:47:00.667Z,31.40
2019-05-01T18:49:29.358Z,32.15
2019-05-01T18:51:58.110Z,32.55
2019-05-01T18:54:30.366Z,32.58
2019-05-01T18:56:57.449Z,31.77
2019-05-01T18:59:26.220Z,31.55
2019-05-01T19:01:54.907Z,31.80
2019-05-01T19:04:24.689Z,32.67
2019-05-01T19:06:53.647Z,31.65
2019-05-01T19:09:29.752Z,32.35
2019-05-01T19:11:53.515Z,31.93
2019-05-01T19:14:23.690Z,32.23
2019-05-01T19:16:53.694Z,32.58
2019-05-01T19:19:22.593Z,32.33
2019-05-01T19:21:51.311Z,31.97
2019-05-01T19:24:20.071Z,33.80
2019-05-01T19:26:48.854Z,32.55
2019-05-01T19:29:17.942Z,32.73
2019-05-01T19:31:47.150Z,34.27
2019-05-01T19:34:16.150Z,33.48
2019-05-01T19:36:46.288Z,33.75
2019-05-01T19:39:15.345Z,34.90
2019-05-01T19:41:49.124Z,33.98
2019-05-01T19:44:18.855Z,33.98
2019-05-01T19:47:37.221Z,35.25
2019-05-01T19:50:09.473Z,34.75
2019-05-01T19:52:39.928Z,35.55
2019-05-01T19:55:09.108Z,37.48
2019-05-01T19:57:38.520Z,36.60
2019-05-01T20:00:09.142Z,37.17
2019-05-01T20:02:37.929Z,37.25
2019-05-01T20:05:10.812Z,36.90
2019-05-01T20:07:37.990Z,36.65
2019-05-01T20:10:07.961Z,37.33
2019-05-01T20:12:36.699Z,36.95
2019-05-01T20:15:05.910Z,36.50
2019-05-01T20:17:34.832Z,37.95
2019-05-01T20:20:04.203Z,37.75
2019-05-01T20:22:33.558Z,37.93
2019-05-01T20:25:02.580Z,38.70
2019-05-01T20:27:31.316Z,37.85
2019-05-01T20:30:00.022Z,37.93
2019-05-01T20:32:28.710Z,38.78
2019-05-01T20:34:59.451Z,38.90
2019-05-01T20:37:28.454Z,39.63
2019-05-01T20:40:10.116Z,38.40
2019-05-01T20:42:27.550Z,38.55
2019-05-01T20:45:04.335Z,39.18
2019-05-01T20:47:35.044Z,39.45
2019-05-01T20:49:57.719Z,39.48
2019-05-01T20:52:26.428Z,38.53
2019-05-01T20:54:55.132Z,38.60
2019-05-01T20:57:31.219Z,40.15
2019-05-01T20:59:59.935Z,40.17
2019-05-01T21:02:28.954Z,38.98
2019-05-01T21:05:25.139Z,38.63
2019-05-01T21:08:19.527Z,38.85
2019-05-01T21:10:52.465Z,38.65
2019-05-01T21:13:23.275Z,39.33
2019-05-01T21:15:56.260Z,38.00
2019-05-01T21:18:25.970Z,37.42
2019-05-01T21:20:54.171Z,38.63
2019-05-01T21:23:23.397Z,38.35
2019-05-01T21:25:53.827Z,38.73
2019-05-01T21:28:24.017Z,39.00
2019-05-01T21:30:54.378Z,39.05
2019-05-01T21:33:23.852Z,40.17
2019-05-01T21:35:53.388Z,40.63
2019-05-01T21:38:22.089Z,39.25
2019-05-01T21:40:51.045Z,39.85
2019-05-01T21:43:19.751Z,39.40
2019-05-01T21:45:48.706Z,40.08
2019-05-01T21:48:17.423Z,39.88
2019-05-01T21:50:46.360Z,38.25
2019-05-01T21:53:15.045Z,37.88
2019-05-01T21:55:44.002Z,37.30
2019-05-01T21:58:15.183Z,38.33
2019-05-01T22:00:43.535Z,38.48
2019-05-01T22:03:12.393Z,37.13
2019-05-01T22:05:41.362Z,38.33
2019-05-01T22:08:10.056Z,37.80
2019-05-01T22:10:51.449Z,38.35
2019-05-01T22:13:09.528Z,37.93
2019-05-01T22:15:47.265Z,37.23
2019-05-01T22:18:27.159Z,37.73
2019-05-01T22:21:08.920Z,39.20
2019-05-01T22:24:04.940Z,37.83
2019-05-01T22:26:37.834Z,39.80
2019-05-01T22:29:08.669Z,40.98
2019-05-01T22:31:57.461Z,41.58
2019-05-01T22:35:01.087Z,40.58
2019-05-01T22:37:30.043Z,38.28
2019-05-01T22:40:05.874Z,38.28
2019-05-01T22:42:34.708Z,37.85
2019-05-01T22:45:03.784Z,37.60
2019-05-01T22:47:32.461Z,35.85
2019-05-01T22:50:01.263Z,37.17
2019-05-01T22:55:35.988Z,38.10
2019-05-01T22:58:05.093Z,37.67
2019-05-01T23:00:45.253Z,37.23
2019-05-01T23:03:20.459Z,38.25
2019-05-01T23:05:49.142Z,37.70
2019-05-01T23:08:18.377Z,39.35
2019-05-01T23:10:48.546Z,37.90
2019-05-01T23:13:17.368Z,36.95
2019-05-01T23:15:46.542Z,35.43
2019-05-01T23:18:17.258Z,36.68
2019-05-01T23:20:45.896Z,37.63
2019-05-01T23:23:14.581Z,36.83
2019-05-01T23:25:43.265Z,35.83
2019-05-01T23:28:11.944Z,37.80
2019-05-01T23:30:40.921Z,37.25
2019-05-01T23:33:09.601Z,37.35
2019-05-01T23:35:38.400Z,37.53
2019-05-01T23:38:07.140Z,37.00
2019-05-01T23:40:35.970Z,39.20
2019-05-01T23:43:04.941Z,38.83
2019-05-01T23:45:33.612Z,38.30
2019-05-01T23:48:02.311Z,39.13
2019-05-01T23:50:31.026Z,39.88
2019-05-01T23:52:59.683Z,40.95
2019-05-01T23:55:28.587Z,40.12
2019-05-01T23:57:57.533Z,39.70
